This is the latest recevied weather packets stored in our database for station/object IT9IJI-15. If no packets are shown the sender has not sent any weather packets the latest 10 day(s).
| Time | Temp. | Humidity | Pressure | Rain* | Wind** | Luminosity | Snow |
|---|---|---|---|---|---|---|---|
| 1777448454 | 29.44° C | 36% | 892.7 hPa | - | - | - | - |
| 1777446648 | 28.33° C | 39% | 892.5 hPa | - | - | - | - |
| 1777446091 | 27.78° C | 40% | 892.4 hPa | - | - | - | - |
| 1777445810 | 27.22° C | 41% | 892.3 hPa | - | - | - | - |
| 1777445254 | 26.11° C | 44% | 892.3 hPa | - | - | - | - |
| 1777445142 | 26.11° C | 44% | 892.3 hPa | - | - | - | - |
| 1777444973 | 25.56° C | 46% | 892.3 hPa | - | - | - | - |
| 1777444892 | 25.56° C | 46% | 892.3 hPa | - | - | - | - |
| 1777444746 | 24.44° C | 48% | 892.3 hPa | - | - | - | - |
| 1777444416 | 24.44° C | 49% | 892.3 hPa | - | - | - | - |
| 1777444304 | 23.33° C | 50% | 892.2 hPa | - | - | - | - |
| 1777444182 | 22.78° C | 51% | 892.4 hPa | - | - | - | - |
| 1777397107 | 28.89° C | 29% | 891.5 hPa | - | - | - | - |
| 1777396207 | 29.44° C | 29% | 891.6 hPa | - | - | - | - |
| 1777395316 | 29.44° C | 29% | 891.6 hPa | - | - | - | - |
| 1777394735 | 29.44° C | 30% | 891.5 hPa | - | - | - | - |
| 1777394407 | 29.44° C | 30% | 891.5 hPa | - | - | - | - |
| 1777393515 | 30° C | 30% | 891.7 hPa | - | - | - | - |
| 1777392607 | 30° C | 30% | 891.6 hPa | - | - | - | - |
| 1777391823 | 30° C | 30% | 891.7 hPa | - | - | - | - |
| 1777391714 | 30° C | 30% | 891.7 hPa | - | - | - | - |
| 1777390806 | 25.56° C | 31% | 887.4 hPa | - | - | - | - |
| 1777389914 | 30° C | 31% | 896.3 hPa | - | - | - | - |
| 1777389009 | 30° C | 32% | 891.7 hPa | - | - | - | - |
| 1777387184 | 30° C | 31% | 891.7 hPa | - | - | - | - |
* Rain since midnight (hover to see other rain measurements)
** Current wind speed in m/s (hover to see current wind gust speed)